sensor_id;sensor_type;location;lat;lon;timestamp;P1;durP1;ratioP1;P2;durP2;ratioP2
34142;SDS011;20419;10.658;106.724;2022-10-16T00:00:41;8.38;;;7.13;;
34142;SDS011;20419;10.658;106.724;2022-10-16T00:03:08;7.95;;;7.05;;
34142;SDS011;20419;10.658;106.724;2022-10-16T00:05:39;9.43;;;6.85;;
34142;SDS011;20419;10.658;106.724;2022-10-16T00:08:07;8.65;;;7.07;;
34142;SDS011;20419;10.658;106.724;2022-10-16T00:10:35;7.60;;;6.47;;
34142;SDS011;20419;10.658;106.724;2022-10-16T00:13:02;7.80;;;6.85;;
34142;SDS011;20419;10.658;106.724;2022-10-16T00:15:29;9.05;;;6.93;;
34142;SDS011;20419;10.658;106.724;2022-10-16T00:18:01;8.48;;;6.25;;
34142;SDS011;20419;10.658;106.724;2022-10-16T00:20:28;8.65;;;6.55;;
34142;SDS011;20419;10.658;106.724;2022-10-16T00:22:56;8.00;;;6.73;;
34142;SDS011;20419;10.658;106.724;2022-10-16T00:25:23;7.78;;;6.28;;
34142;SDS011;20419;10.658;106.724;2022-10-16T00:27:50;7.45;;;6.35;;
34142;SDS011;20419;10.658;106.724;2022-10-16T00:30:17;8.77;;;6.45;;
34142;SDS011;20419;10.658;106.724;2022-10-16T00:32:44;7.00;;;6.20;;
34142;SDS011;20419;10.658;106.724;2022-10-16T00:35:11;9.43;;;7.25;;
34142;SDS011;20419;10.658;106.724;2022-10-16T00:37:38;8.20;;;6.72;;
34142;SDS011;20419;10.658;106.724;2022-10-16T00:40:05;9.65;;;6.55;;
34142;SDS011;20419;10.658;106.724;2022-10-16T00:42:32;8.57;;;6.25;;
34142;SDS011;20419;10.658;106.724;2022-10-16T00:44:59;8.70;;;7.05;;
34142;SDS011;20419;10.658;106.724;2022-10-16T00:49:55;11.05;;;7.10;;
34142;SDS011;20419;10.658;106.724;2022-10-16T00:52:22;8.48;;;6.95;;
34142;SDS011;20419;10.658;106.724;2022-10-16T00:54:49;9.02;;;7.05;;
34142;SDS011;20419;10.658;106.724;2022-10-16T00:57:16;9.02;;;6.40;;
34142;SDS011;20419;10.658;106.724;2022-10-16T00:59:43;9.05;;;6.88;;
34142;SDS011;20419;10.658;106.724;2022-10-16T01:02:12;8.98;;;6.95;;
34142;SDS011;20419;10.658;106.724;2022-10-16T01:04:43;9.63;;;6.93;;
34142;SDS011;20419;10.658;106.724;2022-10-16T01:07:12;7.53;;;6.63;;
34142;SDS011;20419;10.658;106.724;2022-10-16T01:09:47;10.07;;;6.43;;
34142;SDS011;20419;10.658;106.724;2022-10-16T01:12:23;8.55;;;6.70;;
34142;SDS011;20419;10.658;106.724;2022-10-16T01:17:19;8.75;;;7.50;;
34142;SDS011;20419;10.658;106.724;2022-10-16T01:22:14;8.55;;;7.10;;
34142;SDS011;20419;10.658;106.724;2022-10-16T01:24:44;10.70;;;7.90;;
34142;SDS011;20419;10.658;106.724;2022-10-16T01:27:13;8.25;;;7.00;;
34142;SDS011;20419;10.658;106.724;2022-10-16T01:32:28;8.98;;;6.97;;
34142;SDS011;20419;10.658;106.724;2022-10-16T01:35:11;10.13;;;6.90;;
34142;SDS011;20419;10.658;106.724;2022-10-16T01:40:09;8.80;;;6.70;;
34142;SDS011;20419;10.658;106.724;2022-10-16T01:42:39;11.32;;;6.97;;
34142;SDS011;20419;10.658;106.724;2022-10-16T01:45:07;9.43;;;6.90;;
34142;SDS011;20419;10.658;106.724;2022-10-16T01:47:36;10.50;;;6.80;;
34142;SDS011;20419;10.658;106.724;2022-10-16T01:50:04;9.15;;;6.78;;
34142;SDS011;20419;10.658;106.724;2022-10-16T01:52:31;9.55;;;6.72;;
34142;SDS011;20419;10.658;106.724;2022-10-16T01:54:59;8.07;;;6.87;;
34142;SDS011;20419;10.658;106.724;2022-10-16T01:57:27;10.73;;;7.32;;
34142;SDS011;20419;10.658;106.724;2022-10-16T01:59:56;9.35;;;6.57;;
34142;SDS011;20419;10.658;106.724;2022-10-16T02:02:24;10.50;;;7.13;;
34142;SDS011;20419;10.658;106.724;2022-10-16T02:05:02;10.25;;;6.72;;
34142;SDS011;20419;10.658;106.724;2022-10-16T02:07:31;9.63;;;7.20;;
34142;SDS011;20419;10.658;106.724;2022-10-16T02:09:59;11.18;;;6.82;;
34142;SDS011;20419;10.658;106.724;2022-10-16T02:12:27;9.03;;;6.17;;
34142;SDS011;20419;10.658;106.724;2022-10-16T02:14:55;10.18;;;6.57;;
34142;SDS011;20419;10.658;106.724;2022-10-16T02:17:22;11.63;;;7.20;;
34142;SDS011;20419;10.658;106.724;2022-10-16T02:19:50;9.60;;;6.97;;
34142;SDS011;20419;10.658;106.724;2022-10-16T02:22:19;11.30;;;6.85;;
34142;SDS011;20419;10.658;106.724;2022-10-16T02:29:43;8.27;;;6.13;;
34142;SDS011;20419;10.658;106.724;2022-10-16T02:32:15;10.32;;;6.55;;
34142;SDS011;20419;10.658;106.724;2022-10-16T02:34:44;9.60;;;6.70;;
34142;SDS011;20419;10.658;106.724;2022-10-16T02:37:12;14.07;;;7.00;;
34142;SDS011;20419;10.658;106.724;2022-10-16T02:39:39;10.73;;;6.47;;
34142;SDS011;20419;10.658;106.724;2022-10-16T02:42:11;9.32;;;6.72;;
34142;SDS011;20419;10.658;106.724;2022-10-16T02:44:38;9.57;;;6.53;;
34142;SDS011;20419;10.658;106.724;2022-10-16T02:47:05;8.85;;;6.82;;
34142;SDS011;20419;10.658;106.724;2022-10-16T02:49:32;9.73;;;6.22;;
34142;SDS011;20419;10.658;106.724;2022-10-16T02:51:59;7.95;;;6.22;;
34142;SDS011;20419;10.658;106.724;2022-10-16T02:54:26;8.05;;;6.05;;
34142;SDS011;20419;10.658;106.724;2022-10-16T02:56:53;7.40;;;5.93;;
34142;SDS011;20419;10.658;106.724;2022-10-16T02:59:19;9.02;;;6.05;;
34142;SDS011;20419;10.658;106.724;2022-10-16T03:01:46;7.07;;;5.78;;
34142;SDS011;20419;10.658;106.724;2022-10-16T03:04:13;7.18;;;5.93;;
34142;SDS011;20419;10.658;106.724;2022-10-16T03:06:40;7.30;;;5.65;;
34142;SDS011;20419;10.658;106.724;2022-10-16T03:09:07;8.40;;;5.82;;
34142;SDS011;20419;10.658;106.724;2022-10-16T03:11:34;6.78;;;5.45;;
34142;SDS011;20419;10.658;106.724;2022-10-16T03:14:01;7.13;;;5.25;;
34142;SDS011;20419;10.658;106.724;2022-10-16T03:16:31;7.85;;;5.32;;
34142;SDS011;20419;10.658;106.724;2022-10-16T03:18:58;7.93;;;5.60;;
34142;SDS011;20419;10.658;106.724;2022-10-16T03:21:25;6.20;;;4.97;;
34142;SDS011;20419;10.658;106.724;2022-10-16T03:23:52;7.18;;;5.32;;
34142;SDS011;20419;10.658;106.724;2022-10-16T03:26:19;6.88;;;5.35;;
34142;SDS011;20419;10.658;106.724;2022-10-16T03:28:46;6.55;;;4.95;;
34142;SDS011;20419;10.658;106.724;2022-10-16T03:31:13;6.40;;;5.28;;
34142;SDS011;20419;10.658;106.724;2022-10-16T03:33:39;6.97;;;5.28;;
34142;SDS011;20419;10.658;106.724;2022-10-16T03:36:06;7.68;;;5.88;;
34142;SDS011;20419;10.658;106.724;2022-10-16T03:38:33;6.68;;;5.18;;
34142;SDS011;20419;10.658;106.724;2022-10-16T03:41:00;6.13;;;4.80;;
34142;SDS011;20419;10.658;106.724;2022-10-16T03:43:27;7.15;;;5.55;;
34142;SDS011;20419;10.658;106.724;2022-10-16T03:45:54;6.50;;;4.68;;
34142;SDS011;20419;10.658;106.724;2022-10-16T03:48:21;7.47;;;5.13;;
34142;SDS011;20419;10.658;106.724;2022-10-16T03:50:48;6.95;;;5.13;;
34142;SDS011;20419;10.658;106.724;2022-10-16T03:53:15;6.85;;;4.57;;
34142;SDS011;20419;10.658;106.724;2022-10-16T03:55:43;8.00;;;5.20;;
34142;SDS011;20419;10.658;106.724;2022-10-16T03:58:10;7.45;;;5.10;;
34142;SDS011;20419;10.658;106.724;2022-10-16T04:00:43;8.77;;;5.15;;
34142;SDS011;20419;10.658;106.724;2022-10-16T04:03:10;8.18;;;5.35;;
34142;SDS011;20419;10.658;106.724;2022-10-16T04:05:37;10.50;;;6.25;;
34142;SDS011;20419;10.658;106.724;2022-10-16T04:08:04;10.48;;;6.95;;
34142;SDS011;20419;10.658;106.724;2022-10-16T04:10:31;10.48;;;6.25;;
34142;SDS011;20419;10.658;106.724;2022-10-16T04:12:58;9.75;;;6.85;;
34142;SDS011;20419;10.658;106.724;2022-10-16T04:15:25;12.80;;;6.95;;
34142;SDS011;20419;10.658;106.724;2022-10-16T04:17:52;13.30;;;7.57;;
34142;SDS011;20419;10.658;106.724;2022-10-16T04:20:19;10.80;;;7.32;;
34142;SDS011;20419;10.658;106.724;2022-10-16T04:22:46;12.45;;;7.28;;
34142;SDS011;20419;10.658;106.724;2022-10-16T04:25:12;11.70;;;7.65;;
34142;SDS011;20419;10.658;106.724;2022-10-16T04:27:42;12.18;;;8.15;;
34142;SDS011;20419;10.658;106.724;2022-10-16T04:30:09;10.30;;;7.63;;
34142;SDS011;20419;10.658;106.724;2022-10-16T04:32:36;12.60;;;8.32;;
34142;SDS011;20419;10.658;106.724;2022-10-16T04:35:03;15.07;;;8.45;;
34142;SDS011;20419;10.658;106.724;2022-10-16T04:37:30;12.02;;;7.53;;
34142;SDS011;20419;10.658;106.724;2022-10-16T04:39:57;12.05;;;7.85;;
34142;SDS011;20419;10.658;106.724;2022-10-16T04:42:24;11.18;;;7.88;;
34142;SDS011;20419;10.658;106.724;2022-10-16T04:44:51;13.07;;;7.80;;
34142;SDS011;20419;10.658;106.724;2022-10-16T04:47:17;10.88;;;7.38;;
34142;SDS011;20419;10.658;106.724;2022-10-16T04:49:44;12.27;;;7.70;;
34142;SDS011;20419;10.658;106.724;2022-10-16T04:52:11;11.52;;;7.50;;
34142;SDS011;20419;10.658;106.724;2022-10-16T04:54:38;11.32;;;7.47;;
34142;SDS011;20419;10.658;106.724;2022-10-16T04:57:05;12.65;;;8.07;;
34142;SDS011;20419;10.658;106.724;2022-10-16T04:59:32;12.55;;;7.75;;
34142;SDS011;20419;10.658;106.724;2022-10-16T05:01:59;10.68;;;7.43;;
34142;SDS011;20419;10.658;106.724;2022-10-16T05:04:26;13.85;;;8.15;;
34142;SDS011;20419;10.658;106.724;2022-10-16T05:06:52;10.50;;;7.05;;
34142;SDS011;20419;10.658;106.724;2022-10-16T05:09:19;9.85;;;6.97;;
34142;SDS011;20419;10.658;106.724;2022-10-16T05:11:47;12.65;;;7.45;;
34142;SDS011;20419;10.658;106.724;2022-10-16T05:14:13;11.48;;;7.85;;
34142;SDS011;20419;10.658;106.724;2022-10-16T05:16:40;10.30;;;7.22;;
34142;SDS011;20419;10.658;106.724;2022-10-16T05:19:07;10.30;;;7.18;;
34142;SDS011;20419;10.658;106.724;2022-10-16T05:21:34;9.52;;;7.00;;
34142;SDS011;20419;10.658;106.724;2022-10-16T05:24:01;9.93;;;6.95;;
34142;SDS011;20419;10.658;106.724;2022-10-16T05:26:28;10.23;;;7.28;;
34142;SDS011;20419;10.658;106.724;2022-10-16T05:28:55;11.40;;;7.00;;
34142;SDS011;20419;10.658;106.724;2022-10-16T05:31:22;12.00;;;7.30;;
34142;SDS011;20419;10.658;106.724;2022-10-16T05:33:49;11.25;;;7.53;;
34142;SDS011;20419;10.658;106.724;2022-10-16T05:36:17;10.40;;;7.75;;
34142;SDS011;20419;10.658;106.724;2022-10-16T05:38:45;11.77;;;7.80;;
34142;SDS011;20419;10.658;106.724;2022-10-16T05:41:11;10.70;;;7.13;;
34142;SDS011;20419;10.658;106.724;2022-10-16T05:43:38;9.75;;;6.95;;
34142;SDS011;20419;10.658;106.724;2022-10-16T05:46:06;10.15;;;6.78;;
34142;SDS011;20419;10.658;106.724;2022-10-16T05:48:33;11.75;;;7.50;;
34142;SDS011;20419;10.658;106.724;2022-10-16T05:51:00;10.15;;;7.65;;
34142;SDS011;20419;10.658;106.724;2022-10-16T05:53:28;11.85;;;8.13;;
34142;SDS011;20419;10.658;106.724;2022-10-16T05:55:56;9.57;;;7.47;;
34142;SDS011;20419;10.658;106.724;2022-10-16T05:58:23;9.75;;;7.15;;
34142;SDS011;20419;10.658;106.724;2022-10-16T06:00:57;9.15;;;7.00;;
34142;SDS011;20419;10.658;106.724;2022-10-16T06:03:24;8.68;;;7.45;;
34142;SDS011;20419;10.658;106.724;2022-10-16T06:05:51;9.05;;;6.68;;
34142;SDS011;20419;10.658;106.724;2022-10-16T06:08:19;9.50;;;6.50;;
34142;SDS011;20419;10.658;106.724;2022-10-16T06:10:46;9.20;;;6.40;;
34142;SDS011;20419;10.658;106.724;2022-10-16T06:13:15;7.65;;;6.07;;
34142;SDS011;20419;10.658;106.724;2022-10-16T06:15:42;11.55;;;6.82;;
34142;SDS011;20419;10.658;106.724;2022-10-16T06:18:09;8.45;;;6.45;;
34142;SDS011;20419;10.658;106.724;2022-10-16T06:20:36;7.28;;;6.10;;
34142;SDS011;20419;10.658;106.724;2022-10-16T06:23:03;9.10;;;7.13;;
34142;SDS011;20419;10.658;106.724;2022-10-16T06:25:31;8.07;;;6.28;;
34142;SDS011;20419;10.658;106.724;2022-10-16T06:27:58;8.20;;;5.93;;
34142;SDS011;20419;10.658;106.724;2022-10-16T06:30:25;8.95;;;6.22;;
34142;SDS011;20419;10.658;106.724;2022-10-16T06:32:52;8.25;;;6.20;;
34142;SDS011;20419;10.658;106.724;2022-10-16T06:35:18;8.25;;;6.15;;
34142;SDS011;20419;10.658;106.724;2022-10-16T06:37:45;7.78;;;6.60;;
34142;SDS011;20419;10.658;106.724;2022-10-16T06:40:12;8.30;;;6.13;;
34142;SDS011;20419;10.658;106.724;2022-10-16T06:42:40;7.22;;;5.53;;
34142;SDS011;20419;10.658;106.724;2022-10-16T06:45:07;9.68;;;6.25;;
34142;SDS011;20419;10.658;106.724;2022-10-16T06:47:34;7.85;;;5.45;;
34142;SDS011;20419;10.658;106.724;2022-10-16T06:50:01;7.72;;;6.05;;
34142;SDS011;20419;10.658;106.724;2022-10-16T06:52:29;8.32;;;5.50;;
34142;SDS011;20419;10.658;106.724;2022-10-16T06:54:56;6.72;;;5.10;;
34142;SDS011;20419;10.658;106.724;2022-10-16T06:57:23;8.50;;;5.28;;
34142;SDS011;20419;10.658;106.724;2022-10-16T06:59:50;6.25;;;4.80;;
34142;SDS011;20419;10.658;106.724;2022-10-16T07:02:16;9.95;;;6.30;;
34142;SDS011;20419;10.658;106.724;2022-10-16T07:04:43;8.00;;;5.20;;
34142;SDS011;20419;10.658;106.724;2022-10-16T07:07:10;7.22;;;5.45;;
34142;SDS011;20419;10.658;106.724;2022-10-16T07:09:37;7.63;;;5.50;;
34142;SDS011;20419;10.658;106.724;2022-10-16T07:12:04;7.70;;;5.88;;
34142;SDS011;20419;10.658;106.724;2022-10-16T07:14:31;7.82;;;5.70;;
34142;SDS011;20419;10.658;106.724;2022-10-16T07:16:58;10.48;;;6.03;;
34142;SDS011;20419;10.658;106.724;2022-10-16T07:19:25;7.80;;;5.60;;
34142;SDS011;20419;10.658;106.724;2022-10-16T07:21:51;7.55;;;5.72;;
34142;SDS011;20419;10.658;106.724;2022-10-16T07:24:18;7.82;;;5.82;;
34142;SDS011;20419;10.658;106.724;2022-10-16T07:26:45;8.80;;;6.60;;
34142;SDS011;20419;10.658;106.724;2022-10-16T07:29:13;14.85;;;7.50;;
34142;SDS011;20419;10.658;106.724;2022-10-16T07:31:41;13.47;;;7.33;;
34142;SDS011;20419;10.658;106.724;2022-10-16T07:34:09;10.95;;;6.57;;
34142;SDS011;20419;10.658;106.724;2022-10-16T07:36:36;13.07;;;7.65;;
34142;SDS011;20419;10.658;106.724;2022-10-16T07:39:03;16.80;;;8.43;;
34142;SDS011;20419;10.658;106.724;2022-10-16T07:41:30;13.48;;;7.82;;
34142;SDS011;20419;10.658;106.724;2022-10-16T07:43:58;15.15;;;7.72;;
34142;SDS011;20419;10.658;106.724;2022-10-16T07:46:26;9.52;;;6.88;;
34142;SDS011;20419;10.658;106.724;2022-10-16T07:48:53;13.43;;;7.88;;
34142;SDS011;20419;10.658;106.724;2022-10-16T07:51:23;12.63;;;7.35;;
34142;SDS011;20419;10.658;106.724;2022-10-16T07:53:51;13.13;;;7.30;;
34142;SDS011;20419;10.658;106.724;2022-10-16T07:56:18;12.60;;;7.70;;
34142;SDS011;20419;10.658;106.724;2022-10-16T07:58:46;10.32;;;7.15;;
34142;SDS011;20419;10.658;106.724;2022-10-16T08:03:44;12.30;;;7.03;;
34142;SDS011;20419;10.658;106.724;2022-10-16T08:06:12;13.93;;;7.43;;
34142;SDS011;20419;10.658;106.724;2022-10-16T08:08:39;10.32;;;7.30;;
34142;SDS011;20419;10.658;106.724;2022-10-16T08:11:06;16.17;;;7.30;;
34142;SDS011;20419;10.658;106.724;2022-10-16T08:13:33;15.30;;;7.10;;
34142;SDS011;20419;10.658;106.724;2022-10-16T08:16:00;9.65;;;7.05;;
34142;SDS011;20419;10.658;106.724;2022-10-16T08:18:29;10.93;;;7.38;;
34142;SDS011;20419;10.658;106.724;2022-10-16T08:20:56;12.75;;;8.27;;
34142;SDS011;20419;10.658;106.724;2022-10-16T08:23:24;13.93;;;8.17;;
34142;SDS011;20419;10.658;106.724;2022-10-16T08:25:52;12.60;;;7.68;;
34142;SDS011;20419;10.658;106.724;2022-10-16T08:28:19;11.70;;;7.25;;
34142;SDS011;20419;10.658;106.724;2022-10-16T08:30:46;12.48;;;7.70;;
34142;SDS011;20419;10.658;106.724;2022-10-16T08:33:13;11.02;;;7.47;;
34142;SDS011;20419;10.658;106.724;2022-10-16T08:35:40;10.82;;;7.75;;
34142;SDS011;20419;10.658;106.724;2022-10-16T08:38:07;12.35;;;7.60;;
34142;SDS011;20419;10.658;106.724;2022-10-16T08:40:35;12.55;;;7.65;;
34142;SDS011;20419;10.658;106.724;2022-10-16T08:48:27;11.95;;;8.13;;
34142;SDS011;20419;10.658;106.724;2022-10-16T08:50:56;9.55;;;7.20;;
34142;SDS011;20419;10.658;106.724;2022-10-16T08:53:38;11.25;;;7.88;;
34142;SDS011;20419;10.658;106.724;2022-10-16T08:56:07;11.10;;;7.22;;
34142;SDS011;20419;10.658;106.724;2022-10-16T08:58:34;10.82;;;8.02;;
34142;SDS011;20419;10.658;106.724;2022-10-16T09:01:02;10.60;;;7.85;;
34142;SDS011;20419;10.658;106.724;2022-10-16T09:11:09;9.77;;;7.35;;
34142;SDS011;20419;10.658;106.724;2022-10-16T09:21:16;10.25;;;6.82;;
34142;SDS011;20419;10.658;106.724;2022-10-16T09:23:44;9.15;;;6.78;;
34142;SDS011;20419;10.658;106.724;2022-10-16T09:26:13;10.52;;;7.35;;
34142;SDS011;20419;10.658;106.724;2022-10-16T09:28:40;11.32;;;7.30;;
34142;SDS011;20419;10.658;106.724;2022-10-16T09:31:17;10.02;;;7.25;;
34142;SDS011;20419;10.658;106.724;2022-10-16T09:33:45;9.75;;;6.93;;
34142;SDS011;20419;10.658;106.724;2022-10-16T09:36:13;9.30;;;6.85;;
34142;SDS011;20419;10.658;106.724;2022-10-16T09:38:40;9.45;;;6.90;;
34142;SDS011;20419;10.658;106.724;2022-10-16T09:43:41;9.82;;;7.47;;
34142;SDS011;20419;10.658;106.724;2022-10-16T09:46:25;9.93;;;6.72;;
34142;SDS011;20419;10.658;106.724;2022-10-16T09:48:54;8.68;;;6.75;;
34142;SDS011;20419;10.658;106.724;2022-10-16T09:53:55;9.80;;;6.68;;
34142;SDS011;20419;10.658;106.724;2022-10-16T09:56:24;9.75;;;6.78;;
34142;SDS011;20419;10.658;106.724;2022-10-16T10:01:24;8.95;;;6.63;;
34142;SDS011;20419;10.658;106.724;2022-10-16T10:03:55;9.20;;;6.97;;
34142;SDS011;20419;10.658;106.724;2022-10-16T10:06:35;9.38;;;6.13;;
34142;SDS011;20419;10.658;106.724;2022-10-16T10:11:43;9.15;;;7.05;;
34142;SDS011;20419;10.658;106.724;2022-10-16T10:19:39;8.10;;;6.65;;
34142;SDS011;20419;10.658;106.724;2022-10-16T10:24:59;9.10;;;6.60;;
34142;SDS011;20419;10.658;106.724;2022-10-16T10:27:32;8.85;;;5.97;;
34142;SDS011;20419;10.658;106.724;2022-10-16T10:37:32;8.48;;;6.22;;
34142;SDS011;20419;10.658;106.724;2022-10-16T10:45:38;8.52;;;6.18;;
34142;SDS011;20419;10.658;106.724;2022-10-16T10:50:52;7.88;;;5.70;;
34142;SDS011;20419;10.658;106.724;2022-10-16T11:06:26;7.25;;;6.00;;
34142;SDS011;20419;10.658;106.724;2022-10-16T11:08:53;9.75;;;6.25;;
34142;SDS011;20419;10.658;106.724;2022-10-16T11:11:32;7.65;;;6.38;;
34142;SDS011;20419;10.658;106.724;2022-10-16T11:16:46;7.47;;;5.95;;
34142;SDS011;20419;10.658;106.724;2022-10-16T11:21:54;8.05;;;6.20;;
34142;SDS011;20419;10.658;106.724;2022-10-16T11:24:24;8.60;;;6.25;;
34142;SDS011;20419;10.658;106.724;2022-10-16T11:26:54;7.70;;;5.63;;
34142;SDS011;20419;10.658;106.724;2022-10-16T11:29:28;8.77;;;6.10;;
34142;SDS011;20419;10.658;106.724;2022-10-16T11:32:06;7.22;;;5.90;;
34142;SDS011;20419;10.658;106.724;2022-10-16T11:34:41;7.20;;;5.45;;
34142;SDS011;20419;10.658;106.724;2022-10-16T11:39:38;7.15;;;5.80;;
34142;SDS011;20419;10.658;106.724;2022-10-16T11:42:21;7.93;;;5.97;;
34142;SDS011;20419;10.658;106.724;2022-10-16T11:45:32;9.23;;;6.05;;
34142;SDS011;20419;10.658;106.724;2022-10-16T11:50:23;8.85;;;6.45;;
34142;SDS011;20419;10.658;106.724;2022-10-16T11:52:53;8.27;;;5.85;;
34142;SDS011;20419;10.658;106.724;2022-10-16T11:55:32;8.13;;;5.82;;
34142;SDS011;20419;10.658;106.724;2022-10-16T11:58:12;6.80;;;5.47;;
34142;SDS011;20419;10.658;106.724;2022-10-16T12:00:44;8.32;;;6.43;;
34142;SDS011;20419;10.658;106.724;2022-10-16T12:08:15;9.10;;;6.75;;
34142;SDS011;20419;10.658;106.724;2022-10-16T12:10:44;7.57;;;5.22;;
34142;SDS011;20419;10.658;106.724;2022-10-16T12:18:43;7.25;;;5.65;;
34142;SDS011;20419;10.658;106.724;2022-10-16T12:21:12;7.72;;;5.72;;
34142;SDS011;20419;10.658;106.724;2022-10-16T12:26:14;8.20;;;6.18;;
34142;SDS011;20419;10.658;106.724;2022-10-16T12:28:50;7.65;;;6.10;;
34142;SDS011;20419;10.658;106.724;2022-10-16T12:31:17;7.43;;;5.35;;
34142;SDS011;20419;10.658;106.724;2022-10-16T12:34:01;7.78;;;5.40;;
34142;SDS011;20419;10.658;106.724;2022-10-16T12:36:34;9.30;;;5.80;;
34142;SDS011;20419;10.658;106.724;2022-10-16T12:39:02;9.50;;;5.90;;
34142;SDS011;20419;10.658;106.724;2022-10-16T12:41:32;6.90;;;5.45;;
34142;SDS011;20419;10.658;106.724;2022-10-16T12:44:00;8.70;;;6.00;;
34142;SDS011;20419;10.658;106.724;2022-10-16T12:51:42;7.47;;;5.60;;
34142;SDS011;20419;10.658;106.724;2022-10-16T12:54:16;7.05;;;5.32;;
34142;SDS011;20419;10.658;106.724;2022-10-16T13:14:32;6.78;;;5.13;;
34142;SDS011;20419;10.658;106.724;2022-10-16T13:19:39;6.95;;;5.32;;
34142;SDS011;20419;10.658;106.724;2022-10-16T13:22:14;8.40;;;5.65;;
34142;SDS011;20419;10.658;106.724;2022-10-16T13:27:31;8.85;;;5.82;;
34142;SDS011;20419;10.658;106.724;2022-10-16T13:30:43;8.68;;;6.70;;
34142;SDS011;20419;10.658;106.724;2022-10-16T13:32:54;7.38;;;5.53;;
34142;SDS011;20419;10.658;106.724;2022-10-16T13:35:26;10.30;;;5.53;;
34142;SDS011;20419;10.658;106.724;2022-10-16T13:40:56;9.27;;;5.95;;
34142;SDS011;20419;10.658;106.724;2022-10-16T13:43:32;7.70;;;5.65;;
34142;SDS011;20419;10.658;106.724;2022-10-16T13:46:00;6.80;;;5.63;;
34142;SDS011;20419;10.658;106.724;2022-10-16T13:50:59;6.45;;;4.88;;
34142;SDS011;20419;10.658;106.724;2022-10-16T13:53:26;6.68;;;5.43;;
34142;SDS011;20419;10.658;106.724;2022-10-16T13:55:55;7.20;;;5.65;;
34142;SDS011;20419;10.658;106.724;2022-10-16T13:58:22;7.97;;;5.70;;
34142;SDS011;20419;10.658;106.724;2022-10-16T14:00:56;6.68;;;5.15;;
34142;SDS011;20419;10.658;106.724;2022-10-16T14:03:24;7.43;;;5.65;;
34142;SDS011;20419;10.658;106.724;2022-10-16T14:05:54;6.82;;;5.32;;
34142;SDS011;20419;10.658;106.724;2022-10-16T14:08:23;7.13;;;5.70;;
34142;SDS011;20419;10.658;106.724;2022-10-16T14:10:52;6.85;;;5.15;;
34142;SDS011;20419;10.658;106.724;2022-10-16T14:13:24;7.97;;;5.68;;
34142;SDS011;20419;10.658;106.724;2022-10-16T14:15:53;7.78;;;5.22;;
34142;SDS011;20419;10.658;106.724;2022-10-16T14:18:21;6.53;;;5.05;;
34142;SDS011;20419;10.658;106.724;2022-10-16T14:20:49;8.30;;;5.95;;
34142;SDS011;20419;10.658;106.724;2022-10-16T14:23:29;6.82;;;5.40;;
34142;SDS011;20419;10.658;106.724;2022-10-16T14:28:36;7.18;;;5.35;;
34142;SDS011;20419;10.658;106.724;2022-10-16T14:36:11;6.45;;;5.15;;
34142;SDS011;20419;10.658;106.724;2022-10-16T14:38:39;7.72;;;5.55;;
34142;SDS011;20419;10.658;106.724;2022-10-16T14:41:06;6.97;;;5.07;;
34142;SDS011;20419;10.658;106.724;2022-10-16T14:46:01;8.50;;;5.82;;
34142;SDS011;20419;10.658;106.724;2022-10-16T14:48:29;6.47;;;5.05;;
34142;SDS011;20419;10.658;106.724;2022-10-16T14:50:56;7.07;;;5.55;;
34142;SDS011;20419;10.658;106.724;2022-10-16T14:53:23;6.93;;;5.32;;
34142;SDS011;20419;10.658;106.724;2022-10-16T14:55:50;6.53;;;5.03;;
34142;SDS011;20419;10.658;106.724;2022-10-16T14:58:18;8.00;;;5.20;;
34142;SDS011;20419;10.658;106.724;2022-10-16T15:00:45;6.95;;;4.93;;
34142;SDS011;20419;10.658;106.724;2022-10-16T15:03:12;6.65;;;5.43;;
34142;SDS011;20419;10.658;106.724;2022-10-16T15:05:39;6.68;;;5.30;;
34142;SDS011;20419;10.658;106.724;2022-10-16T15:08:06;7.50;;;5.10;;
34142;SDS011;20419;10.658;106.724;2022-10-16T15:10:35;6.85;;;5.35;;
34142;SDS011;20419;10.658;106.724;2022-10-16T15:13:06;7.57;;;5.55;;
34142;SDS011;20419;10.658;106.724;2022-10-16T15:15:45;6.13;;;5.28;;
34142;SDS011;20419;10.658;106.724;2022-10-16T15:18:12;6.68;;;5.30;;
34142;SDS011;20419;10.658;106.724;2022-10-16T15:20:48;7.05;;;5.20;;
34142;SDS011;20419;10.658;106.724;2022-10-16T15:23:16;5.70;;;4.90;;
34142;SDS011;20419;10.658;106.724;2022-10-16T15:28:10;7.35;;;5.63;;
34142;SDS011;20419;10.658;106.724;2022-10-16T15:30:38;7.25;;;5.05;;
34142;SDS011;20419;10.658;106.724;2022-10-16T15:33:08;5.90;;;5.07;;
34142;SDS011;20419;10.658;106.724;2022-10-16T15:35:48;6.63;;;5.13;;
34142;SDS011;20419;10.658;106.724;2022-10-16T15:38:16;6.63;;;5.18;;
34142;SDS011;20419;10.658;106.724;2022-10-16T15:40:43;6.72;;;5.47;;
34142;SDS011;20419;10.658;106.724;2022-10-16T15:43:11;5.77;;;4.77;;
34142;SDS011;20419;10.658;106.724;2022-10-16T15:45:38;7.00;;;5.32;;
34142;SDS011;20419;10.658;106.724;2022-10-16T15:48:05;6.70;;;5.38;;
34142;SDS011;20419;10.658;106.724;2022-10-16T15:50:32;6.00;;;4.90;;
34142;SDS011;20419;10.658;106.724;2022-10-16T15:52:59;6.93;;;5.22;;
34142;SDS011;20419;10.658;106.724;2022-10-16T15:55:26;7.53;;;5.30;;
34142;SDS011;20419;10.658;106.724;2022-10-16T15:57:53;7.72;;;5.78;;
34142;SDS011;20419;10.658;106.724;2022-10-16T16:00:21;8.20;;;5.47;;
34142;SDS011;20419;10.658;106.724;2022-10-16T16:02:51;6.72;;;5.43;;
34142;SDS011;20419;10.658;106.724;2022-10-16T16:05:19;7.30;;;6.05;;
34142;SDS011;20419;10.658;106.724;2022-10-16T16:07:46;7.78;;;5.93;;
34142;SDS011;20419;10.658;106.724;2022-10-16T16:10:13;6.85;;;5.47;;
34142;SDS011;20419;10.658;106.724;2022-10-16T16:12:40;7.15;;;5.75;;
34142;SDS011;20419;10.658;106.724;2022-10-16T16:15:07;7.70;;;5.70;;
34142;SDS011;20419;10.658;106.724;2022-10-16T16:17:35;7.55;;;5.93;;
34142;SDS011;20419;10.658;106.724;2022-10-16T16:20:03;7.78;;;5.22;;
34142;SDS011;20419;10.658;106.724;2022-10-16T16:22:31;6.95;;;5.85;;
34142;SDS011;20419;10.658;106.724;2022-10-16T16:24:57;6.32;;;5.38;;
34142;SDS011;20419;10.658;106.724;2022-10-16T16:27:24;7.53;;;5.88;;
34142;SDS011;20419;10.658;106.724;2022-10-16T16:29:51;7.65;;;5.50;;
34142;SDS011;20419;10.658;106.724;2022-10-16T16:34:47;7.22;;;5.25;;
34142;SDS011;20419;10.658;106.724;2022-10-16T16:37:14;6.57;;;5.57;;
34142;SDS011;20419;10.658;106.724;2022-10-16T16:39:41;11.10;;;5.45;;
34142;SDS011;20419;10.658;106.724;2022-10-16T16:42:08;7.93;;;5.78;;
34142;SDS011;20419;10.658;106.724;2022-10-16T16:44:35;7.40;;;5.53;;
34142;SDS011;20419;10.658;106.724;2022-10-16T16:47:03;7.57;;;5.25;;
34142;SDS011;20419;10.658;106.724;2022-10-16T16:49:31;7.65;;;5.63;;
34142;SDS011;20419;10.658;106.724;2022-10-16T16:51:58;6.88;;;5.55;;
34142;SDS011;20419;10.658;106.724;2022-10-16T16:54:25;7.22;;;5.60;;
34142;SDS011;20419;10.658;106.724;2022-10-16T16:56:52;7.18;;;5.68;;
34142;SDS011;20419;10.658;106.724;2022-10-16T16:59:19;7.82;;;4.80;;
34142;SDS011;20419;10.658;106.724;2022-10-16T17:01:47;6.63;;;5.75;;
34142;SDS011;20419;10.658;106.724;2022-10-16T17:04:14;8.55;;;5.90;;
34142;SDS011;20419;10.658;106.724;2022-10-16T17:06:41;6.78;;;5.07;;